createdAt,value
2017-06-16T00:01:48.057Z,9.55
2017-06-16T00:04:15.652Z,10.32
2017-06-16T00:06:43.211Z,14.00
2017-06-16T00:17:50.391Z,10.70
2017-06-16T00:20:17.951Z,11.57
2017-06-16T00:22:45.511Z,12.30
2017-06-16T00:25:13.253Z,12.50
2017-06-16T00:27:40.808Z,10.13
2017-06-16T00:30:08.364Z,10.80
2017-06-16T00:32:36.092Z,11.02
2017-06-16T00:35:03.660Z,11.10
2017-06-16T00:37:31.220Z,10.40
2017-06-16T00:39:58.948Z,11.68
2017-06-16T00:42:26.492Z,9.60
2017-06-16T00:44:54.044Z,12.20
2017-06-16T00:47:21.649Z,14.15
2017-06-16T00:49:49.207Z,10.93
2017-06-16T00:52:16.767Z,14.00
2017-06-16T00:54:44.364Z,13.40
2017-06-16T00:57:11.927Z,14.87
2017-06-16T00:59:39.500Z,11.25
2017-06-16T01:02:07.265Z,9.30
2017-06-16T01:04:35.665Z,10.88
2017-06-16T01:07:03.225Z,10.80
2017-06-16T01:09:31.056Z,9.70
2017-06-16T01:11:58.614Z,12.10
2017-06-16T01:14:26.171Z,13.77
2017-06-16T01:16:53.928Z,18.77
2017-06-16T01:19:21.480Z,9.95
2017-06-16T01:21:49.044Z,13.18
2017-06-16T01:24:16.771Z,10.77
2017-06-16T01:26:44.349Z,13.43
2017-06-16T01:29:11.934Z,14.27
2017-06-16T01:31:39.665Z,14.38
2017-06-16T01:34:08.114Z,17.02
2017-06-16T01:36:35.676Z,16.37
2017-06-16T01:39:04.212Z,11.45
2017-06-16T01:41:31.781Z,11.52
2017-06-16T01:43:59.386Z,11.55
2017-06-16T01:46:27.841Z,16.02
2017-06-16T01:48:56.199Z,11.07
2017-06-16T01:51:24.860Z,11.05
2017-06-16T01:53:52.593Z,14.57
2017-06-16T01:56:20.151Z,12.23
2017-06-16T01:58:47.707Z,13.50
2017-06-16T02:01:15.663Z,14.57
2017-06-16T02:03:43.216Z,10.30
2017-06-16T02:06:10.768Z,12.80
2017-06-16T02:08:38.379Z,15.00
2017-06-16T02:11:05.938Z,14.70
2017-06-16T02:13:33.503Z,13.75
2017-06-16T02:16:01.467Z,10.45
2017-06-16T02:18:29.095Z,12.82
2017-06-16T02:20:56.651Z,11.43
2017-06-16T02:23:24.263Z,13.00
2017-06-16T02:25:51.829Z,13.93
2017-06-16T02:28:19.403Z,11.43
2017-06-16T02:30:47.297Z,17.95
2017-06-16T02:33:14.867Z,24.12
2017-06-16T02:35:43.191Z,15.52
2017-06-16T02:38:10.915Z,14.38
2017-06-16T02:40:38.476Z,15.00
2017-06-16T02:43:06.048Z,14.32
2017-06-16T02:45:33.779Z,14.73
2017-06-16T02:48:01.348Z,16.23
2017-06-16T02:50:28.920Z,12.68
2017-06-16T02:52:56.655Z,14.45
2017-06-16T02:55:24.215Z,13.30
2017-06-16T02:57:51.776Z,19.20
2017-06-16T03:00:19.375Z,17.12
2017-06-16T03:02:46.935Z,12.98
2017-06-16T03:05:14.499Z,12.70
2017-06-16T03:07:42.451Z,13.50
2017-06-16T03:10:10.004Z,16.75
2017-06-16T03:12:38.345Z,15.70
2017-06-16T03:15:05.964Z,14.57
2017-06-16T03:17:33.523Z,17.05
2017-06-16T03:20:01.103Z,15.07
2017-06-16T03:22:34.407Z,14.07
2017-06-16T03:25:01.974Z,16.62
2017-06-16T03:27:29.543Z,15.55
2017-06-16T03:29:57.172Z,17.37
2017-06-16T03:32:24.731Z,12.15
2017-06-16T03:34:52.296Z,13.98
2017-06-16T03:37:20.313Z,17.02
2017-06-16T03:39:48.636Z,14.57
2017-06-16T03:42:16.208Z,14.40
2017-06-16T03:44:43.804Z,16.62
2017-06-16T03:47:11.355Z,14.70
2017-06-16T03:49:38.917Z,13.20
2017-06-16T03:52:06.616Z,14.00
2017-06-16T03:54:34.178Z,15.57
2017-06-16T03:57:01.734Z,15.15
2017-06-16T03:59:29.453Z,12.82
2017-06-16T04:01:57.019Z,14.38
2017-06-16T04:04:24.579Z,19.15
2017-06-16T04:06:53.263Z,13.73
2017-06-16T04:09:20.828Z,14.75
2017-06-16T04:11:48.389Z,19.40
2017-06-16T04:14:16.888Z,16.40
2017-06-16T04:16:45.327Z,21.55
2017-06-16T04:19:12.884Z,14.32
2017-06-16T04:21:40.613Z,17.17
2017-06-16T04:24:08.175Z,13.65
2017-06-16T04:26:35.733Z,14.43
2017-06-16T04:29:03.881Z,14.50
2017-06-16T04:31:31.440Z,11.52
2017-06-16T04:33:59.773Z,13.70
2017-06-16T04:36:27.543Z,11.95
2017-06-16T04:38:55.109Z,16.98
2017-06-16T04:41:22.672Z,14.02
2017-06-16T04:43:50.662Z,17.45
2017-06-16T04:46:18.240Z,13.55
2017-06-16T04:48:45.807Z,12.95
2017-06-16T04:51:13.571Z,14.00
2017-06-16T04:53:41.159Z,19.75
2017-06-16T04:56:08.721Z,13.60
2017-06-16T04:58:36.327Z,16.08
2017-06-16T05:01:04.975Z,15.02
2017-06-16T05:03:32.537Z,21.73
2017-06-16T05:06:00.301Z,18.33
2017-06-16T05:08:27.863Z,16.42
2017-06-16T05:10:55.434Z,14.65
2017-06-16T05:13:23.112Z,18.33
2017-06-16T05:15:51.432Z,17.85
2017-06-16T05:18:19.000Z,15.60
2017-06-16T05:20:46.611Z,14.68
2017-06-16T05:23:31.883Z,16.08
2017-06-16T05:26:00.320Z,13.52
2017-06-16T05:28:27.878Z,13.45
2017-06-16T05:30:55.437Z,18.70
2017-06-16T05:33:23.215Z,15.80
2017-06-16T05:35:50.774Z,12.88
2017-06-16T05:38:18.340Z,12.43
2017-06-16T05:40:45.952Z,14.35
2017-06-16T05:43:13.511Z,19.45
2017-06-16T05:45:41.068Z,12.27
2017-06-16T05:48:08.664Z,13.02
2017-06-16T05:50:36.229Z,18.80
2017-06-16T05:53:03.788Z,13.45
2017-06-16T05:55:31.663Z,16.92
2017-06-16T05:57:59.219Z,14.05
2017-06-16T06:00:26.775Z,12.73
2017-06-16T06:02:54.364Z,10.30
2017-06-16T06:05:22.674Z,9.85
2017-06-16T06:07:50.243Z,11.85
2017-06-16T06:10:18.248Z,13.13
2017-06-16T06:12:45.796Z,15.75
2017-06-16T06:15:13.351Z,11.77
2017-06-16T06:17:40.959Z,16.37
2017-06-16T06:20:08.512Z,15.25
2017-06-16T06:22:36.921Z,10.18
2017-06-16T06:25:04.533Z,7.53
2017-06-16T06:27:32.084Z,15.02
2017-06-16T06:29:59.632Z,9.15
2017-06-16T06:32:27.404Z,14.90
2017-06-16T06:34:54.965Z,10.05
2017-06-16T06:37:22.535Z,14.70
2017-06-16T06:39:50.154Z,9.77
2017-06-16T06:42:17.705Z,9.02
2017-06-16T06:44:45.277Z,11.45
2017-06-16T06:47:13.059Z,7.05
2017-06-16T06:49:40.647Z,8.88
2017-06-16T06:52:08.955Z,8.55
2017-06-16T06:54:36.716Z,8.93
2017-06-16T06:57:04.271Z,4.53
2017-06-16T06:59:31.816Z,7.05
2017-06-16T07:01:59.639Z,9.48
2017-06-16T07:04:27.183Z,7.12
2017-06-16T07:06:54.756Z,7.15
2017-06-16T07:09:22.452Z,11.27
2017-06-16T07:11:50.763Z,8.57
2017-06-16T07:14:18.315Z,10.73
2017-06-16T07:16:45.927Z,6.82
2017-06-16T07:19:13.482Z,4.70
2017-06-16T07:21:41.028Z,6.50
2017-06-16T07:24:08.691Z,5.80
2017-06-16T07:26:36.247Z,5.45
2017-06-16T07:29:03.795Z,6.85
2017-06-16T07:31:31.475Z,5.32
2017-06-16T07:33:59.039Z,9.18
2017-06-16T07:36:26.599Z,8.68
2017-06-16T07:38:54.465Z,7.25
2017-06-16T07:41:22.015Z,3.45
2017-06-16T07:43:49.565Z,4.55
2017-06-16T07:46:17.359Z,6.50
2017-06-16T07:48:44.915Z,7.78
2017-06-16T07:51:12.485Z,14.70
2017-06-16T07:53:40.110Z,6.87
2017-06-16T07:56:07.660Z,5.45
2017-06-16T07:58:35.221Z,5.25
2017-06-16T08:01:03.115Z,3.92
2017-06-16T08:03:30.665Z,8.50
2017-06-16T08:05:59.181Z,4.80
2017-06-16T08:08:26.863Z,4.30
2017-06-16T08:10:54.412Z,6.20
2017-06-16T08:13:21.968Z,6.53
2017-06-16T08:15:49.907Z,7.37
2017-06-16T08:18:17.463Z,8.23
2017-06-16T08:20:50.737Z,2.72
2017-06-16T08:23:18.295Z,5.68
2017-06-16T08:25:45.866Z,4.15
2017-06-16T08:28:13.635Z,5.53
2017-06-16T08:30:42.852Z,5.80
2017-06-16T08:33:10.679Z,3.55
2017-06-16T08:35:38.647Z,3.08
2017-06-16T08:38:06.198Z,6.68
2017-06-16T08:40:33.754Z,5.60
2017-06-16T08:43:01.555Z,7.18
2017-06-16T08:45:29.115Z,7.90
2017-06-16T08:47:56.668Z,4.68
2017-06-16T08:50:24.430Z,4.20
2017-06-16T08:52:51.983Z,9.90
2017-06-16T08:55:19.531Z,4.87
2017-06-16T08:57:47.235Z,5.65
2017-06-16T09:00:14.801Z,9.90
2017-06-16T09:02:42.356Z,6.30
2017-06-16T09:05:10.092Z,3.75
2017-06-16T09:07:37.651Z,10.98
2017-06-16T09:10:05.208Z,7.60
2017-06-16T09:12:32.981Z,5.85
2017-06-16T09:15:00.534Z,10.77
2017-06-16T09:17:28.108Z,3.37
2017-06-16T09:19:56.578Z,5.20
2017-06-16T09:22:24.137Z,6.25
2017-06-16T09:24:51.696Z,5.72
2017-06-16T09:27:19.371Z,4.82
2017-06-16T09:29:46.924Z,6.12
2017-06-16T09:32:14.471Z,3.25
2017-06-16T09:34:42.067Z,5.37
2017-06-16T09:37:09.613Z,3.55
2017-06-16T09:39:37.176Z,2.83
2017-06-16T09:42:05.560Z,2.83
2017-06-16T09:44:33.876Z,5.50
2017-06-16T09:47:01.431Z,3.53
2017-06-16T09:49:29.109Z,2.70
2017-06-16T09:51:56.663Z,6.53
2017-06-16T09:54:24.203Z,3.78
2017-06-16T09:56:51.883Z,6.75
2017-06-16T09:59:19.434Z,5.22
2017-06-16T10:01:46.985Z,4.65
2017-06-16T10:04:14.791Z,7.03
2017-06-16T10:06:42.336Z,6.62
2017-06-16T10:09:09.877Z,10.85
2017-06-16T10:11:37.483Z,9.00
2017-06-16T10:14:05.805Z,4.85
2017-06-16T10:16:33.347Z,7.40
2017-06-16T10:19:00.984Z,6.15
2017-06-16T10:21:29.308Z,5.00
2017-06-16T10:23:56.859Z,5.55
2017-06-16T10:26:24.672Z,7.82
2017-06-16T10:28:52.216Z,3.90
2017-06-16T10:31:19.781Z,2.87
2017-06-16T10:33:47.457Z,7.57
2017-06-16T10:36:15.791Z,3.22
2017-06-16T10:38:43.340Z,3.40
2017-06-16T10:41:10.967Z,4.30
2017-06-16T10:43:39.301Z,6.95
2017-06-16T10:46:06.861Z,5.53
2017-06-16T10:48:34.540Z,6.60
2017-06-16T10:51:02.100Z,3.62
2017-06-16T10:53:29.673Z,13.02
2017-06-16T10:55:57.416Z,6.85
2017-06-16T10:58:24.965Z,5.15
2017-06-16T11:00:52.516Z,4.05
2017-06-16T11:03:20.259Z,4.55
2017-06-16T11:05:47.807Z,9.52
2017-06-16T11:08:15.355Z,4.50
2017-06-16T11:10:43.288Z,3.72
2017-06-16T11:13:10.840Z,7.20
2017-06-16T11:15:38.387Z,5.15
2017-06-16T11:18:05.966Z,1.95
2017-06-16T11:20:33.515Z,1.92
2017-06-16T11:23:01.067Z,4.40
2017-06-16T11:25:28.964Z,6.43
2017-06-16T11:27:57.290Z,7.43
2017-06-16T11:30:24.839Z,5.80
2017-06-16T11:32:52.435Z,7.45
2017-06-16T11:35:19.988Z,6.32
2017-06-16T11:37:48.076Z,3.90
2017-06-16T11:40:16.052Z,6.93
2017-06-16T11:42:43.611Z,5.25
2017-06-16T11:45:11.239Z,7.95
2017-06-16T11:47:38.851Z,7.47
2017-06-16T11:50:07.182Z,6.22
2017-06-16T11:52:34.744Z,4.97
2017-06-16T11:55:02.335Z,4.68
2017-06-16T11:57:29.892Z,4.55
2017-06-16T11:59:57.458Z,6.25
2017-06-16T12:02:26.023Z,5.62
2017-06-16T12:04:53.573Z,8.38
2017-06-16T12:07:21.130Z,4.60
2017-06-16T12:09:48.737Z,7.22
2017-06-16T12:12:16.294Z,5.95
2017-06-16T12:14:43.853Z,7.40
2017-06-16T12:17:11.439Z,2.67
2017-06-16T12:19:39.002Z,4.53
2017-06-16T12:22:06.563Z,5.05
2017-06-16T12:24:34.470Z,6.05
2017-06-16T12:27:02.028Z,8.30
2017-06-16T12:29:29.593Z,8.83
2017-06-16T12:31:58.259Z,7.18
2017-06-16T12:34:25.811Z,4.80
2017-06-16T12:36:53.367Z,7.43
2017-06-16T12:39:21.116Z,6.33
2017-06-16T12:41:48.671Z,7.10
2017-06-16T12:44:16.227Z,5.28
2017-06-16T12:46:43.907Z,4.85
2017-06-16T12:49:11.474Z,4.30
2017-06-16T12:51:39.032Z,11.02
2017-06-16T12:54:06.808Z,11.55
2017-06-16T12:56:34.408Z,3.80
2017-06-16T12:59:01.963Z,8.27
2017-06-16T13:01:30.188Z,6.30
2017-06-16T13:03:57.748Z,5.85
2017-06-16T13:06:25.296Z,6.50
